Portovyi 101 — UBAN2 — position and weather

sailwx.info

Track history (hours):
 
Tides and Currents Weather Stations Pressure Air Temp Water Temp Dewpoint Dewpoint Depression Visibility Wind Speed Wind Dir Waves Ship Positions

Portovyi 101

Last reported at 2018-Jul-11 01:46 UTC. Time now 2018-Jul-16 20:08 UTC.
Position N 44°53' E 036°47'.

Length 19 m; draft 3.5 m.

Type: Tug. MMSI: 273375540.

Date/timePositionNaut miles runAvg speedWind from/ knotsBaromVisibWave heightAir tempDewpointWater temp
2018-Jul-11 01:46N 44°53' E 036°47'  
2018-Jul-04 16:53N 45°16' E 036°29'3 7.2
2018-Jul-04 16:28N 45°19' E 036°31'4 8.4
2018-Jul-04 16:00N 45°20' E 036°36'4 8.8
2018-Jul-04 15:30N 45°22' E 036°41'1 1.3
2018-Jul-04 15:00N 45°23' E 036°42'0 0.0
2018-Jul-04 14:30N 45°23' E 036°42'0 0.0
2018-Jul-04 14:00N 45°23' E 036°42'0 0.0
2018-Jul-04 13:30N 45°23' E 036°42'0 0.0
2018-Jul-04 13:00N 45°23' E 036°42'0 0.0
2018-Jul-04 12:29N 45°23' E 036°42'0 0.0
2018-Jul-04 12:00N 45°23' E 036°42'0 0.0
2018-Jul-04 11:30N 45°23' E 036°42'0 0.0
2018-Jul-04 11:00N 45°23' E 036°42'0 0.0
2018-Jul-04 10:21N 45°23' E 036°42'0 0.0
2018-Jul-04 10:00N 45°23' E 036°42'0 0.0
2018-Jul-04 09:30N 45°23' E 036°42'0 0.0
2018-Jul-04 08:59N 45°23' E 036°42'0 0.0
2018-Jul-04 08:30N 45°23' E 036°42'0 0.0
2018-Jul-04 08:00N 45°23' E 036°42'0 0.0
2018-Jul-04 07:30N 45°23' E 036°42'0 0.0
2018-Jul-04 07:00N 45°23' E 036°42'0 0.0
2018-Jul-04 06:30N 45°23' E 036°42'1 2.4
2018-Jul-04 06:00N 45°22' E 036°40'4 8.1
2018-Jul-04 05:30N 45°20' E 036°35'4 8.0
2018-Jul-04 05:00N 45°18' E 036°30'10 0.3
2018-Jul-02 14:34N 45°09' E 036°35'1 5.5
2018-Jul-02 14:20N 45°08' E 036°36'0 0.0
2018-Jul-02 14:00N 45°08' E 036°36'0 0.0
2018-Jul-02 13:30N 45°08' E 036°36'0 0.0
2018-Jul-02 13:00N 45°08' E 036°36'0 0.0
2018-Jul-02 12:21N 45°08' E 036°36'0 0.0
2018-Jul-02 11:18N 45°08' E 036°36'  
Track history (hours):
 
Tides and Currents Weather Stations Pressure Air Temp Water Temp Dewpoint Dewpoint Depression Visibility Wind Speed Wind Dir Waves Ship Positions

Portovyi 101

Last reported at 2018-Jul-11 01:46 UTC. Time now 2018-Jul-16 20:08 UTC.
Position N 44°53' E 036°47'.

Length 19 m; draft 3.5 m.

Type: Tug. MMSI: 273375540.

Date/timePositionNaut miles runAvg speedWind from/ knotsBaromVisibWave heightAir tempDewpointWater temp
2018-Jul-11 01:46N 44°53' E 036°47'  
2018-Jul-04 16:53N 45°16' E 036°29'3 7.2
2018-Jul-04 16:28N 45°19' E 036°31'4 8.4
2018-Jul-04 16:00N 45°20' E 036°36'4 8.8
2018-Jul-04 15:30N 45°22' E 036°41'1 1.3
2018-Jul-04 15:00N 45°23' E 036°42'0 0.0
2018-Jul-04 14:30N 45°23' E 036°42'0 0.0
2018-Jul-04 14:00N 45°23' E 036°42'0 0.0
2018-Jul-04 13:30N 45°23' E 036°42'0 0.0
2018-Jul-04 13:00N 45°23' E 036°42'0 0.0
2018-Jul-04 12:29N 45°23' E 036°42'0 0.0
2018-Jul-04 12:00N 45°23' E 036°42'0 0.0
2018-Jul-04 11:30N 45°23' E 036°42'0 0.0
2018-Jul-04 11:00N 45°23' E 036°42'0 0.0
2018-Jul-04 10:21N 45°23' E 036°42'0 0.0
2018-Jul-04 10:00N 45°23' E 036°42'0 0.0
2018-Jul-04 09:30N 45°23' E 036°42'0 0.0
2018-Jul-04 08:59N 45°23' E 036°42'0 0.0
2018-Jul-04 08:30N 45°23' E 036°42'0 0.0
2018-Jul-04 08:00N 45°23' E 036°42'0 0.0
2018-Jul-04 07:30N 45°23' E 036°42'0 0.0
2018-Jul-04 07:00N 45°23' E 036°42'0 0.0
2018-Jul-04 06:30N 45°23' E 036°42'1 2.4
2018-Jul-04 06:00N 45°22' E 036°40'4 8.1
2018-Jul-04 05:30N 45°20' E 036°35'4 8.0
2018-Jul-04 05:00N 45°18' E 036°30'10 0.3
2018-Jul-02 14:34N 45°09' E 036°35'1 5.5
2018-Jul-02 14:20N 45°08' E 036°36'0 0.0
2018-Jul-02 14:00N 45°08' E 036°36'0 0.0
2018-Jul-02 13:30N 45°08' E 036°36'0 0.0
2018-Jul-02 13:00N 45°08' E 036°36'0 0.0
2018-Jul-02 12:21N 45°08' E 036°36'0 0.0
2018-Jul-02 11:18N 45°08' E 036°36'  

Dump ship's entire track history